createdAt,value
2019-02-15T00:01:55.760Z,17.87
2019-02-15T00:04:25.986Z,18.47
2019-02-15T00:06:56.397Z,17.20
2019-02-15T00:09:26.719Z,17.53
2019-02-15T00:12:19.505Z,17.20
2019-02-15T00:14:49.686Z,18.30
2019-02-15T00:17:37.085Z,17.17
2019-02-15T00:20:11.325Z,17.00
2019-02-15T00:22:41.759Z,16.47
2019-02-15T00:25:12.240Z,15.57
2019-02-15T00:27:42.612Z,15.70
2019-02-15T00:30:12.628Z,16.83
2019-02-15T00:35:38.634Z,17.27
2019-02-15T00:38:08.932Z,16.97
2019-02-15T00:40:40.322Z,18.47
2019-02-15T00:43:10.235Z,16.33
2019-02-15T00:45:50.055Z,17.57
2019-02-15T00:48:22.233Z,17.83
2019-02-15T00:50:58.797Z,16.90
2019-02-15T00:53:45.282Z,17.13
2019-02-15T00:56:34.640Z,17.03
2019-02-15T00:59:30.486Z,17.47
2019-02-15T01:02:26.920Z,16.77
2019-02-15T01:05:08.495Z,15.53
2019-02-15T01:07:55.504Z,15.20
2019-02-15T01:10:40.577Z,15.37
2019-02-15T01:13:14.068Z,15.10
2019-02-15T01:15:44.225Z,14.67
2019-02-15T01:18:14.275Z,13.63
2019-02-15T01:20:44.946Z,13.83
2019-02-15T01:23:14.959Z,13.77
2019-02-15T01:25:52.687Z,13.43
2019-02-15T01:28:40.406Z,12.53
2019-02-15T01:31:39.481Z,12.50
2019-02-15T01:34:29.163Z,10.60
2019-02-15T01:37:18.432Z,11.20
2019-02-15T01:40:04.312Z,10.57
2019-02-15T01:43:06.002Z,10.87
2019-02-15T01:45:46.422Z,10.70
2019-02-15T01:48:17.015Z,10.20
2019-02-15T01:50:47.363Z,9.37
2019-02-15T01:53:17.570Z,10.27
2019-02-15T01:55:48.084Z,10.27
2019-02-15T01:58:19.109Z,11.40
2019-02-15T02:00:48.758Z,11.47
2019-02-15T02:05:59.128Z,10.63
2019-02-15T02:08:30.647Z,10.90
2019-02-15T02:11:01.042Z,10.33
2019-02-15T02:13:31.352Z,10.70
2019-02-15T02:16:01.605Z,10.67
2019-02-15T02:18:31.723Z,11.10
2019-02-15T02:21:02.560Z,10.73
2019-02-15T02:23:32.811Z,10.37
2019-02-15T02:26:03.696Z,10.53
2019-02-15T02:28:33.650Z,10.40
2019-02-15T02:31:04.239Z,10.50
2019-02-15T02:33:34.490Z,10.50
2019-02-15T02:36:05.036Z,10.53
2019-02-15T02:38:35.094Z,10.07
2019-02-15T02:41:04.976Z,10.60
2019-02-15T02:43:34.743Z,9.40
2019-02-15T02:46:05.377Z,9.80
2019-02-15T02:48:36.726Z,10.10
2019-02-15T02:51:07.027Z,10.00
2019-02-15T02:53:37.079Z,9.40
2019-02-15T02:56:07.011Z,9.00
2019-02-15T02:58:37.278Z,10.50
2019-02-15T03:01:07.815Z,10.87
2019-02-15T03:03:37.934Z,10.57
2019-02-15T03:06:08.002Z,10.70
2019-02-15T03:08:38.308Z,10.50
2019-02-15T03:11:09.509Z,10.70
2019-02-15T03:13:39.485Z,11.93
2019-02-15T03:16:10.456Z,11.20
2019-02-15T03:18:39.740Z,11.10
2019-02-15T03:21:10.182Z,11.47
2019-02-15T03:23:40.221Z,11.50
2019-02-15T03:26:11.423Z,10.50
2019-02-15T03:28:41.425Z,10.63
2019-02-15T03:31:12.062Z,11.10
2019-02-15T03:33:41.842Z,10.60
2019-02-15T03:36:19.007Z,9.80
2019-02-15T03:38:57.776Z,9.30
2019-02-15T03:41:35.116Z,9.40
2019-02-15T03:44:04.938Z,9.30
2019-02-15T03:46:34.857Z,9.77
2019-02-15T03:49:04.758Z,9.23
2019-02-15T03:51:34.273Z,9.57
2019-02-15T03:54:04.316Z,9.37
2019-02-15T03:56:35.043Z,10.07
2019-02-15T03:59:04.906Z,10.00
2019-02-15T04:01:34.947Z,9.97
2019-02-15T04:04:05.325Z,9.50
2019-02-15T04:06:35.569Z,9.67
2019-02-15T04:09:06.130Z,9.23
2019-02-15T04:11:36.343Z,10.30
2019-02-15T04:14:06.431Z,10.60
2019-02-15T04:16:36.206Z,10.43
2019-02-15T04:19:05.887Z,10.07
2019-02-15T04:21:36.861Z,24.17
2019-02-15T04:24:07.497Z,22.43
2019-02-15T04:26:37.307Z,15.37
2019-02-15T04:29:07.425Z,15.33
2019-02-15T04:31:37.272Z,16.87
2019-02-15T04:34:07.415Z,17.00
2019-02-15T04:36:38.265Z,13.50
2019-02-15T04:39:08.903Z,13.47
2019-02-15T04:41:39.318Z,11.03
2019-02-15T04:44:10.482Z,9.87
2019-02-15T04:46:40.897Z,9.60
2019-02-15T04:49:11.225Z,8.90
2019-02-15T04:51:41.419Z,8.80
2019-02-15T04:54:11.971Z,8.27
2019-02-15T04:56:41.636Z,8.43
2019-02-15T04:59:12.013Z,9.13
2019-02-15T05:01:42.316Z,8.50
2019-02-15T05:04:13.436Z,8.17
2019-02-15T05:06:44.503Z,9.23
2019-02-15T05:09:15.017Z,9.57
2019-02-15T05:11:45.638Z,10.60
2019-02-15T05:14:16.346Z,9.33
2019-02-15T05:16:46.789Z,9.80
2019-02-15T05:19:17.507Z,9.50
2019-02-15T05:21:49.860Z,10.27
2019-02-15T05:24:20.081Z,9.10
2019-02-15T05:26:54.599Z,9.77
2019-02-15T05:29:25.519Z,9.48
2019-02-15T05:32:13.755Z,9.73
2019-02-15T05:34:44.054Z,10.80
2019-02-15T05:37:14.433Z,14.70
2019-02-15T05:39:44.424Z,18.13
2019-02-15T05:42:14.419Z,12.57
2019-02-15T05:44:44.323Z,11.97
2019-02-15T05:47:15.355Z,12.90
2019-02-15T05:49:45.758Z,10.43
2019-02-15T05:52:16.186Z,11.97
2019-02-15T05:54:46.338Z,12.27
2019-02-15T05:57:16.277Z,10.30
2019-02-15T05:59:47.560Z,9.93
2019-02-15T06:02:17.456Z,10.67
2019-02-15T06:04:47.576Z,10.37
2019-02-15T06:07:17.569Z,9.93
2019-02-15T06:09:47.385Z,9.80
2019-02-15T06:12:17.506Z,9.13
2019-02-15T06:14:48.059Z,9.37
2019-02-15T06:17:17.921Z,9.30
2019-02-15T06:19:49.175Z,10.03
2019-02-15T06:22:19.710Z,10.03
2019-02-15T06:24:49.698Z,10.15
2019-02-15T06:27:19.850Z,17.00
2019-02-15T06:29:50.293Z,16.63
2019-02-15T06:32:20.821Z,14.97
2019-02-15T06:34:50.643Z,15.17
2019-02-15T06:37:21.424Z,14.57
2019-02-15T06:39:51.447Z,15.20
2019-02-15T06:42:21.404Z,16.80
2019-02-15T06:44:51.607Z,18.07
2019-02-15T06:47:21.913Z,23.77
2019-02-15T06:49:52.116Z,15.90
2019-02-15T06:52:23.606Z,13.40
2019-02-15T06:54:53.437Z,11.57
2019-02-15T06:57:24.514Z,9.93
2019-02-15T07:00:32.425Z,10.83
2019-02-15T07:03:25.313Z,10.30
2019-02-15T07:05:55.848Z,9.87
2019-02-15T07:08:26.700Z,9.53
2019-02-15T07:10:57.936Z,8.60
2019-02-15T07:13:29.222Z,8.73
2019-02-15T07:15:59.636Z,8.07
2019-02-15T07:18:29.605Z,8.10
2019-02-15T07:20:59.603Z,8.77
2019-02-15T07:23:31.075Z,8.50
2019-02-15T07:26:00.964Z,8.60
2019-02-15T07:28:31.642Z,8.93
2019-02-15T07:31:01.779Z,9.27
2019-02-15T07:33:32.583Z,11.13
2019-02-15T07:36:03.025Z,12.17
2019-02-15T07:38:33.824Z,12.03
2019-02-15T07:41:03.711Z,11.90
2019-02-15T07:43:33.977Z,11.10
2019-02-15T07:46:03.870Z,10.23
2019-02-15T07:48:34.081Z,10.67
2019-02-15T07:51:09.733Z,9.20
2019-02-15T07:53:36.682Z,8.97
2019-02-15T07:56:07.026Z,8.77
2019-02-15T07:58:37.253Z,8.93
2019-02-15T08:01:07.275Z,8.10
2019-02-15T08:03:38.046Z,8.00
2019-02-15T08:06:08.414Z,7.33
2019-02-15T08:08:38.134Z,7.73
2019-02-15T08:11:09.475Z,7.50
2019-02-15T08:13:40.057Z,7.93
2019-02-15T08:16:11.452Z,10.23
2019-02-15T08:18:41.799Z,12.30
2019-02-15T08:21:13.203Z,10.80
2019-02-15T08:23:44.345Z,10.33
2019-02-15T08:26:15.230Z,9.35
2019-02-15T08:28:45.132Z,8.53
2019-02-15T08:31:15.422Z,8.40
2019-02-15T08:33:45.971Z,8.10
2019-02-15T08:36:16.155Z,7.33
2019-02-15T08:38:46.887Z,7.87
2019-02-15T08:41:17.027Z,7.77
2019-02-15T08:43:47.285Z,7.43
2019-02-15T08:46:17.307Z,7.73
2019-02-15T08:48:47.494Z,8.53
2019-02-15T08:51:17.300Z,9.83
2019-02-15T08:53:47.242Z,8.37
2019-02-15T08:56:18.554Z,8.63
2019-02-15T08:58:48.787Z,8.83
2019-02-15T09:04:00.458Z,8.80
2019-02-15T09:06:30.760Z,9.33
2019-02-15T09:09:01.418Z,8.67
2019-02-15T09:11:33.866Z,9.67
2019-02-15T09:14:04.020Z,9.90
2019-02-15T09:16:34.531Z,10.53
2019-02-15T09:19:04.809Z,10.53
2019-02-15T09:21:37.837Z,10.27
2019-02-15T09:24:09.152Z,9.73
2019-02-15T09:26:39.117Z,10.63
2019-02-15T09:29:10.788Z,10.50
2019-02-15T09:31:41.161Z,9.77
2019-02-15T09:34:13.085Z,10.20
2019-02-15T09:36:44.788Z,10.00
2019-02-15T09:39:14.585Z,10.10
2019-02-15T09:41:44.715Z,9.57
2019-02-15T09:44:17.376Z,10.87
2019-02-15T09:46:47.874Z,10.72
2019-02-15T09:49:20.038Z,9.77
2019-02-15T09:51:49.798Z,10.20
2019-02-15T09:54:20.399Z,9.90
2019-02-15T09:56:50.360Z,10.68
2019-02-15T09:59:22.386Z,11.08
2019-02-15T10:01:52.392Z,10.70
2019-02-15T10:04:22.792Z,10.33
2019-02-15T10:06:53.273Z,10.53
2019-02-15T10:09:23.974Z,11.43
2019-02-15T10:11:54.064Z,12.00
2019-02-15T10:14:25.161Z,12.10
2019-02-15T10:17:16.432Z,10.70
2019-02-15T10:19:46.675Z,10.40
2019-02-15T10:22:38.023Z,11.18
2019-02-15T10:25:09.663Z,10.73
2019-02-15T10:28:00.525Z,10.40
2019-02-15T10:30:31.261Z,11.50
2019-02-15T10:33:01.802Z,10.43
2019-02-15T10:35:31.898Z,11.27
2019-02-15T10:38:02.516Z,10.10
2019-02-15T10:40:33.106Z,11.97
2019-02-15T10:43:03.574Z,11.20
2019-02-15T10:45:34.322Z,12.27
2019-02-15T10:48:04.940Z,11.37
2019-02-15T10:50:35.703Z,10.40
2019-02-15T10:53:06.205Z,10.98
2019-02-15T10:55:38.095Z,11.37
2019-02-15T10:58:09.212Z,11.77
2019-02-15T11:00:39.867Z,11.93
2019-02-15T11:03:10.475Z,12.93
2019-02-15T11:05:40.573Z,13.37
2019-02-15T11:08:11.684Z,14.13
2019-02-15T11:10:41.621Z,12.10
2019-02-15T11:13:11.492Z,11.60
2019-02-15T11:15:41.892Z,13.93
2019-02-15T11:18:11.900Z,12.37
2019-02-15T11:20:42.520Z,13.53
2019-02-15T11:23:12.638Z,13.03
2019-02-15T11:25:42.997Z,13.57
2019-02-15T11:28:14.625Z,14.23
2019-02-15T11:30:44.370Z,15.83
2019-02-15T11:33:14.702Z,15.40
2019-02-15T11:35:45.600Z,13.63
2019-02-15T11:38:18.065Z,15.68
2019-02-15T11:40:48.080Z,15.50
2019-02-15T11:43:18.412Z,14.60
2019-02-15T11:45:49.120Z,13.97
2019-02-15T11:48:19.205Z,15.57
2019-02-15T11:50:49.574Z,15.37
2019-02-15T11:53:19.837Z,14.90
2019-02-15T11:55:50.516Z,13.80
2019-02-15T11:58:20.772Z,15.77
2019-02-15T12:00:50.882Z,16.80
2019-02-15T12:03:20.783Z,16.50
2019-02-15T12:05:51.064Z,14.83
2019-02-15T12:08:21.251Z,14.90
2019-02-15T12:10:52.280Z,15.40
2019-02-15T12:13:22.287Z,14.10
2019-02-15T12:15:52.763Z,14.20
2019-02-15T12:18:23.198Z,14.17
2019-02-15T12:20:53.720Z,15.87
2019-02-15T12:23:23.477Z,16.53
2019-02-15T12:25:55.044Z,16.47
2019-02-15T12:28:25.337Z,15.03
2019-02-15T12:30:55.976Z,15.30
2019-02-15T12:33:26.190Z,13.25
2019-02-15T12:35:56.779Z,13.63
2019-02-15T12:38:26.912Z,16.47
2019-02-15T12:40:56.987Z,16.33
2019-02-15T12:43:27.146Z,14.13
2019-02-15T12:45:57.597Z,14.27
2019-02-15T12:48:28.774Z,13.87
2019-02-15T12:50:58.653Z,15.10
2019-02-15T12:53:28.611Z,14.07
2019-02-15T12:56:00.774Z,13.50
2019-02-15T12:58:31.285Z,14.50
2019-02-15T13:01:01.970Z,16.13
2019-02-15T13:03:32.695Z,15.43
2019-02-15T13:06:04.107Z,15.33
2019-02-15T13:08:33.923Z,15.03
2019-02-15T13:11:04.324Z,13.73
2019-02-15T13:13:34.307Z,14.47
2019-02-15T13:16:05.131Z,13.23
2019-02-15T13:18:34.839Z,13.97
2019-02-15T13:21:05.955Z,13.60
2019-02-15T13:23:36.662Z,13.80
2019-02-15T13:26:08.859Z,13.20
2019-02-15T13:28:40.969Z,12.37
2019-02-15T13:31:11.428Z,13.33
2019-02-15T13:33:42.014Z,12.47
2019-02-15T13:36:12.502Z,11.10
2019-02-15T13:38:42.703Z,12.53
2019-02-15T13:41:13.080Z,13.00
2019-02-15T13:43:43.097Z,12.20
2019-02-15T13:46:13.539Z,12.93
2019-02-15T13:48:46.644Z,12.60
2019-02-15T13:51:17.417Z,12.50
2019-02-15T13:53:48.055Z,11.43
2019-02-15T13:56:18.697Z,11.93
2019-02-15T13:58:49.065Z,12.50
2019-02-15T14:01:19.841Z,12.63
2019-02-15T14:03:51.429Z,11.63
2019-02-15T14:06:22.113Z,13.57
2019-02-15T14:08:53.783Z,13.95
2019-02-15T14:11:24.190Z,14.10
2019-02-15T14:13:53.948Z,14.70
2019-02-15T14:16:24.896Z,14.10
2019-02-15T14:18:54.719Z,13.40
2019-02-15T14:21:24.879Z,13.57
2019-02-15T14:23:54.449Z,13.77
2019-02-15T14:26:25.668Z,15.17
2019-02-15T14:28:56.011Z,15.13
2019-02-15T14:31:25.883Z,14.77
2019-02-15T14:33:56.731Z,16.57
2019-02-15T14:36:27.379Z,14.70
2019-02-15T14:38:57.524Z,15.57
2019-02-15T14:41:27.824Z,15.90
2019-02-15T14:43:58.520Z,15.77
2019-02-15T14:46:28.788Z,15.70
2019-02-15T14:48:59.582Z,15.23
2019-02-15T14:51:31.618Z,16.33
2019-02-15T14:54:01.279Z,16.57
2019-02-15T14:56:31.531Z,16.10
2019-02-15T14:59:02.754Z,16.77
2019-02-15T15:01:32.910Z,15.93
2019-02-15T15:04:03.031Z,17.47
2019-02-15T15:06:34.538Z,16.67
2019-02-15T15:09:06.305Z,17.33
2019-02-15T15:11:37.038Z,17.27
2019-02-15T15:14:07.384Z,17.40
2019-02-15T15:16:37.950Z,16.73
2019-02-15T15:19:08.528Z,16.57
2019-02-15T15:21:38.962Z,16.27
2019-02-15T15:24:09.699Z,16.63
2019-02-15T15:26:41.071Z,16.50
2019-02-15T15:29:11.506Z,16.97
2019-02-15T15:31:42.178Z,16.83
2019-02-15T15:34:13.736Z,16.53
2019-02-15T15:36:46.031Z,16.33
2019-02-15T15:39:17.140Z,14.70
2019-02-15T15:41:47.747Z,13.30
2019-02-15T15:44:17.740Z,13.90
2019-02-15T15:46:50.502Z,13.03
2019-02-15T15:49:20.887Z,13.33
2019-02-15T15:51:51.035Z,12.67
2019-02-15T15:54:21.598Z,12.40
2019-02-15T15:56:51.745Z,12.50
2019-02-15T15:59:22.257Z,11.93
2019-02-15T16:01:52.559Z,12.30
2019-02-15T16:04:22.867Z,12.40
2019-02-15T16:06:52.945Z,11.50
2019-02-15T16:09:22.745Z,11.97
2019-02-15T16:11:52.935Z,12.07
2019-02-15T16:14:23.648Z,12.00
2019-02-15T16:16:54.293Z,11.90
2019-02-15T16:19:24.318Z,12.17
2019-02-15T16:21:55.845Z,10.43
2019-02-15T16:24:27.080Z,10.63
2019-02-15T16:26:58.272Z,11.23
2019-02-15T16:29:28.919Z,12.00
2019-02-15T16:31:59.775Z,11.43
2019-02-15T16:34:30.260Z,11.67
2019-02-15T16:37:02.342Z,13.50
2019-02-15T16:39:34.862Z,12.63
2019-02-15T16:42:05.821Z,12.60
2019-02-15T16:44:36.458Z,15.17
2019-02-15T16:47:07.034Z,17.10
2019-02-15T16:49:37.558Z,20.17
2019-02-15T16:52:08.074Z,20.60
2019-02-15T16:54:38.272Z,19.03
2019-02-15T16:57:08.422Z,19.63
2019-02-15T16:59:39.745Z,19.53
2019-02-15T17:02:10.870Z,18.57
2019-02-15T17:04:41.134Z,17.27
2019-02-15T17:07:11.292Z,17.30
2019-02-15T17:09:42.283Z,19.47
2019-02-15T17:12:12.591Z,19.80
2019-02-15T17:14:42.983Z,21.07
2019-02-15T17:17:13.879Z,22.37
2019-02-15T17:20:04.949Z,20.03
2019-02-15T17:22:36.206Z,26.80
2019-02-15T17:25:08.345Z,24.03
2019-02-15T17:27:40.061Z,24.03
2019-02-15T17:30:11.235Z,23.23
2019-02-15T17:32:52.777Z,23.73
2019-02-15T17:35:24.478Z,21.87
2019-02-15T17:37:56.270Z,24.63
2019-02-15T17:40:27.586Z,25.47
2019-02-15T17:42:59.138Z,23.10
2019-02-15T17:45:31.210Z,25.73
2019-02-15T17:48:02.592Z,25.93
2019-02-15T17:50:33.532Z,25.87
2019-02-15T17:53:05.696Z,26.23
2019-02-15T17:55:36.852Z,25.87
2019-02-15T17:58:07.991Z,25.00
2019-02-15T18:00:39.028Z,30.27
2019-02-15T18:03:10.334Z,29.27
2019-02-15T18:05:41.553Z,29.70
2019-02-15T18:08:13.044Z,26.63
2019-02-15T18:10:45.642Z,27.37
2019-02-15T18:13:16.854Z,31.53
2019-02-15T18:15:47.707Z,31.40
2019-02-15T18:18:18.531Z,27.77
2019-02-15T18:20:48.975Z,29.13
2019-02-15T18:23:19.896Z,28.30
2019-02-15T18:25:51.256Z,28.87
2019-02-15T18:28:22.532Z,31.73
2019-02-15T18:30:54.077Z,32.40
2019-02-15T18:33:24.962Z,31.00
2019-02-15T18:35:56.362Z,31.87
2019-02-15T18:38:27.189Z,34.10
2019-02-15T18:40:58.163Z,33.97
2019-02-15T18:43:29.642Z,34.87
2019-02-15T18:46:00.639Z,35.17
2019-02-15T18:48:36.682Z,39.30
2019-02-15T18:51:07.873Z,46.30
2019-02-15T18:53:39.378Z,40.83
2019-02-15T18:56:10.898Z,39.17
2019-02-15T18:58:41.877Z,38.03
2019-02-15T19:01:33.728Z,37.37
2019-02-15T19:04:05.285Z,36.00
2019-02-15T19:06:37.227Z,35.43
2019-02-15T19:09:28.839Z,34.50
2019-02-15T19:12:02.966Z,34.00
2019-02-15T19:14:34.517Z,34.70
2019-02-15T19:17:06.452Z,34.93
2019-02-15T19:19:37.404Z,39.87
2019-02-15T19:22:26.600Z,36.17
2019-02-15T19:24:57.902Z,33.80
2019-02-15T19:27:29.309Z,35.73
2019-02-15T19:30:00.842Z,36.73
2019-02-15T19:32:32.157Z,34.33
2019-02-15T19:35:04.926Z,31.53
2019-02-15T19:37:36.161Z,33.03
2019-02-15T19:40:07.991Z,32.27
2019-02-15T19:42:39.725Z,32.37
2019-02-15T19:45:11.348Z,35.00
2019-02-15T19:47:43.977Z,32.77
2019-02-15T19:50:15.549Z,34.93
2019-02-15T19:52:47.039Z,34.73
2019-02-15T19:55:18.752Z,34.63
2019-02-15T19:57:49.668Z,38.83
2019-02-15T20:00:23.155Z,35.40
2019-02-15T20:02:54.383Z,34.90
2019-02-15T20:05:25.593Z,37.10
2019-02-15T20:07:59.074Z,37.77
2019-02-15T20:10:30.589Z,35.43
2019-02-15T20:13:01.704Z,38.80
2019-02-15T20:15:33.436Z,38.10
2019-02-15T20:18:05.755Z,37.70
2019-02-15T20:20:36.790Z,37.43
2019-02-15T20:23:08.736Z,44.33
2019-02-15T20:25:39.764Z,38.67
2019-02-15T20:28:14.080Z,42.93
2019-02-15T20:30:44.156Z,41.07
2019-02-15T20:33:15.235Z,41.50
2019-02-15T20:35:46.222Z,40.37
2019-02-15T20:38:17.405Z,42.77
2019-02-15T20:40:48.495Z,40.47
2019-02-15T20:43:19.123Z,37.90
2019-02-15T20:45:52.718Z,40.77
2019-02-15T20:48:23.767Z,38.60
2019-02-15T20:51:16.588Z,39.33
2019-02-15T20:53:47.519Z,38.90
2019-02-15T20:56:20.811Z,38.73
2019-02-15T20:58:52.786Z,39.10
2019-02-15T21:01:23.577Z,39.70
2019-02-15T21:03:55.542Z,40.87
2019-02-15T21:06:26.306Z,41.97
2019-02-15T21:08:57.867Z,40.77
2019-02-15T21:11:29.092Z,39.07
2019-02-15T21:14:00.433Z,40.97
2019-02-15T21:16:31.487Z,41.47
2019-02-15T21:19:02.007Z,42.77
2019-02-15T21:21:33.492Z,42.70
2019-02-15T21:24:04.024Z,44.47
2019-02-15T21:26:34.904Z,49.30
2019-02-15T21:29:07.697Z,50.10
2019-02-15T21:31:38.249Z,48.17
2019-02-15T21:34:08.383Z,47.93
2019-02-15T21:36:42.788Z,46.00
2019-02-15T21:39:13.618Z,47.90
2019-02-15T21:41:44.267Z,48.47
2019-02-15T21:44:14.384Z,50.23
2019-02-15T21:46:45.091Z,50.00
2019-02-15T21:49:15.226Z,49.27
2019-02-15T21:51:45.481Z,49.70
2019-02-15T21:54:15.691Z,45.87
2019-02-15T21:56:46.656Z,47.17
2019-02-15T21:59:16.555Z,45.63
2019-02-15T22:01:46.632Z,44.77
2019-02-15T22:04:17.075Z,46.33
2019-02-15T22:06:47.309Z,44.37
2019-02-15T22:09:17.431Z,45.80
2019-02-15T22:11:47.765Z,45.07
2019-02-15T22:14:18.394Z,43.33
2019-02-15T22:17:09.203Z,45.27
2019-02-15T22:19:39.763Z,47.60
2019-02-15T22:22:10.633Z,48.43
2019-02-15T22:24:41.508Z,50.13
2019-02-15T22:27:12.472Z,49.73
2019-02-15T22:29:42.575Z,50.33
2019-02-15T22:32:13.970Z,50.13
2019-02-15T22:34:44.116Z,47.47
2019-02-15T22:37:14.061Z,47.93
2019-02-15T22:39:44.697Z,46.43
2019-02-15T22:42:14.555Z,45.33
2019-02-15T22:44:45.525Z,47.13
2019-02-15T22:47:15.301Z,52.00
2019-02-15T22:49:44.998Z,52.23
2019-02-15T22:52:20.762Z,47.20
2019-02-15T22:54:51.420Z,48.20
2019-02-15T22:57:22.033Z,46.97
2019-02-15T22:59:54.740Z,46.60
2019-02-15T23:02:25.324Z,45.57
2019-02-15T23:04:55.618Z,46.67
2019-02-15T23:07:25.414Z,47.53
2019-02-15T23:09:55.740Z,48.20
2019-02-15T23:12:26.019Z,46.20
2019-02-15T23:14:55.981Z,44.70
2019-02-15T23:17:26.700Z,44.00
2019-02-15T23:19:56.567Z,44.30
2019-02-15T23:22:26.740Z,43.93
2019-02-15T23:24:56.737Z,44.20
2019-02-15T23:27:27.293Z,46.33
2019-02-15T23:29:57.490Z,42.80
2019-02-15T23:32:28.256Z,43.80
2019-02-15T23:34:58.144Z,43.27
2019-02-15T23:37:28.314Z,43.43
2019-02-15T23:39:58.043Z,42.80
2019-02-15T23:42:28.665Z,44.30
2019-02-15T23:44:58.886Z,42.90
2019-02-15T23:47:28.902Z,43.73
2019-02-15T23:49:59.006Z,42.03
2019-02-15T23:52:29.488Z,43.57
2019-02-15T23:54:59.582Z,42.40
2019-02-15T23:57:29.841Z,41.30
2019-02-15T23:59:59.743Z,42.23
